Time;durP1;ratioP1;P1;durP2;ratioP2;P2;SDS_P1;SDS_P2;PMS_P1;PMS_P2;Temp;Humidity;BMP_temperature;BMP_pressure;BME280_temperature;BME280_humidity;BME280_pressure;Samples;Min_cycle;Max_cycle;Signal;HPM_P1;HPM_P2
2023/05/26 00:00:48;;;;;;;35.08;5.53;;;;;;;9.81;100.00;103106.66;5007342;28;20069;-62
2023/05/26 00:03:14;;;;;;;42.75;6.00;;;;;;;9.80;100.00;103100.50;5010936;28;20108;-62
2023/05/26 00:05:40;;;;;;;28.38;6.55;;;;;;;9.71;100.00;103101.31;5010107;28;20473;-62
2023/05/26 00:08:07;;;;;;;30.75;4.85;;;;;;;9.70;100.00;103101.31;5005759;28;20030;-61
2023/05/26 00:10:32;;;;;;;32.13;5.68;;;;;;;9.71;100.00;103103.06;4992091;28;20038;-61
2023/05/26 00:12:57;;;;;;;39.75;5.82;;;;;;;9.68;100.00;103095.13;4990177;28;20096;-62
2023/05/26 00:15:23;;;;;;;38.10;6.15;;;;;;;9.67;100.00;103103.91;4990515;28;20119;-61
2023/05/26 00:17:50;;;;;;;32.47;5.13;;;;;;;9.73;100.00;103104.81;4991309;28;20026;-62
2023/05/26 00:20:16;;;;;;;37.08;6.55;;;;;;;9.68;100.00;103111.81;4992212;28;20141;-61
2023/05/26 00:22:41;;;;;;;42.42;5.97;;;;;;;9.72;100.00;103104.81;4991455;28;20121;-61
2023/05/26 00:25:07;;;;;;;28.13;5.05;;;;;;;9.68;100.00;103106.56;4989457;28;20492;-61
2023/05/26 00:27:33;;;;;;;34.38;5.20;;;;;;;9.65;100.00;103106.53;4991096;28;20030;-61
2023/05/26 00:29:58;;;;;;;33.33;5.38;;;;;;;9.65;100.00;103111.81;4991931;28;20519;-61
2023/05/26 00:32:24;;;;;;;33.90;5.93;;;;;;;9.59;100.00;103114.38;4990283;28;20073;-63
2023/05/26 00:34:49;;;;;;;29.45;5.25;;;;;;;9.59;100.00;103112.66;4989131;28;20564;-63
2023/05/26 00:37:15;;;;;;;35.13;6.30;;;;;;;9.56;100.00;103111.72;4990767;28;20105;-62
2023/05/26 00:39:40;;;;;;;39.78;5.43;;;;;;;9.43;100.00;103113.41;4992573;28;20157;-61
2023/05/26 00:42:05;;;;;;;36.63;5.82;;;;;;;9.60;100.00;103114.41;4990250;28;20045;-61
2023/05/26 00:44:31;;;;;;;28.83;5.75;;;;;;;9.69;100.00;103123.25;4989346;28;20144;-63
2023/05/26 00:46:56;;;;;;;34.63;6.50;;;;;;;9.65;100.00;103121.44;4990050;28;20073;-62
2023/05/26 00:49:21;;;;;;;34.15;5.22;;;;;;;9.58;100.00;103124.03;4992613;28;20058;-63
2023/05/26 00:51:47;;;;;;;38.53;5.80;;;;;;;9.65;100.00;103116.19;4989358;28;20301;-61
2023/05/26 00:54:13;;;;;;;30.33;5.07;;;;;;;9.67;100.00;103115.34;4989506;28;20086;-62
2023/05/26 00:56:39;;;;;;;28.80;5.45;;;;;;;9.64;100.00;103119.69;4989526;28;20088;-61
2023/05/26 00:59:04;;;;;;;29.67;5.75;;;;;;;9.68;100.00;103113.56;5003883;28;20018;-61
2023/05/26 01:01:31;;;;;;;30.80;5.20;;;;;;;9.58;100.00;103113.50;5010281;28;20033;-61
2023/05/26 01:03:56;;;;;;;30.77;5.40;;;;;;;9.50;100.00;103115.22;5081238;23;20029;-61
2023/05/26 01:06:22;;;;;;;35.35;6.63;;;;;;;9.52;100.00;103105.59;5007383;28;20033;-63
2023/05/26 01:08:48;;;;;;;28.20;5.38;;;;;;;9.53;100.00;103109.06;5011863;28;20037;-62
2023/05/26 01:11:19;;;;;;;38.08;6.32;;;;;;;9.39;100.00;103116.88;5009576;28;20442;-62
2023/05/26 01:13:52;;;;;;;43.08;8.52;;;;;;;9.43;100.00;103119.56;5008651;28;20025;-63
2023/05/26 01:16:21;;;;;;;39.85;6.75;;;;;;;9.43;100.00;103114.28;5008313;28;20039;-61
2023/05/26 01:18:52;;;;;;;28.67;5.15;;;;;;;9.35;100.00;103118.59;5008148;28;20033;-62
2023/05/26 01:21:21;;;;;;;26.45;5.35;;;;;;;9.49;100.00;103118.72;5007385;28;20384;-62
2023/05/26 01:24:12;;;;;;;35.15;5.50;;;;;;;9.37;100.00;103121.25;5006747;28;20029;-62
2023/05/26 01:26:52;;;;;;;32.28;5.80;;;;;;;9.37;100.00;103121.25;5009611;28;20033;-62
2023/05/26 01:29:20;;;;;;;31.52;5.40;;;;;;;9.37;100.00;103121.25;5008252;28;20040;-60
2023/05/26 01:31:46;;;;;;;49.30;6.93;;;;;;;9.32;100.00;103127.34;5009260;28;20099;-62
2023/05/26 01:34:11;;;;;;;35.08;5.15;;;;;;;9.29;100.00;103126.44;5007906;28;20284;-60
2023/05/26 01:36:36;;;;;;;29.95;6.60;;;;;;;9.26;100.00;103124.66;5008645;28;20034;-61
2023/05/26 01:39:02;;;;;;;27.65;5.22;;;;;;;9.25;100.00;103125.53;5007332;28;20275;-61
2023/05/26 01:41:47;;;;;;;31.88;4.90;;;;;;;9.27;100.00;103121.16;5008436;28;20030;-61
2023/05/26 01:44:24;;;;;;;35.25;5.57;;;;;;;9.18;100.00;103126.38;5006856;28;20026;-63
2023/05/26 01:46:51;;;;;;;38.75;6.10;;;;;;;9.01;100.00;103127.09;5007460;28;20026;-61
2023/05/26 01:49:18;;;;;;;33.53;6.75;;;;;;;9.18;100.00;103126.38;5008008;28;20042;-62
2023/05/26 01:51:51;;;;;;;30.70;5.07;;;;;;;9.24;100.00;103134.28;5008908;28;20037;-62
2023/05/26 01:54:18;;;;;;;28.92;5.43;;;;;;;9.16;100.00;103130.72;5006454;28;20420;-62
2023/05/26 01:56:45;;;;;;;27.58;5.20;;;;;;;9.08;100.00;103125.38;5008021;28;20456;-60
2023/05/26 01:59:11;;;;;;;42.35;6.00;;;;;;;9.00;100.00;103130.56;5009296;28;20028;-60
2023/05/26 02:01:37;;;;;;;39.13;6.72;;;;;;;9.03;100.00;103138.47;5008258;28;20057;-61
2023/05/26 02:04:03;;;;;;;32.78;5.57;;;;;;;9.07;100.00;103135.03;5007565;28;20083;-60
2023/05/26 02:06:28;;;;;;;27.63;5.35;;;;;;;9.10;100.00;103139.44;5008472;28;20021;-62
2023/05/26 02:08:54;;;;;;;33.00;5.60;;;;;;;9.09;100.00;103137.66;5007607;28;20041;-61
2023/05/26 02:11:19;;;;;;;31.17;5.20;;;;;;;9.15;100.00;103147.38;5008636;28;20088;-61
2023/05/26 02:13:48;;;;;;;29.85;5.43;;;;;;;9.04;100.00;103145.53;5007057;28;20105;-62
2023/05/26 02:16:13;;;;;;;34.00;6.03;;;;;;;9.01;100.00;103144.59;5008464;28;20021;-63
2023/05/26 02:18:40;;;;;;;29.67;4.82;;;;;;;9.02;100.00;103149.88;5008155;28;20361;-63
2023/05/26 02:21:05;;;;;;;30.90;5.00;;;;;;;9.04;100.00;103145.53;5007641;28;20444;-61
2023/05/26 02:23:31;;;;;;;32.40;5.18;;;;;;;8.98;100.00;103142.84;5005608;28;20076;-61
2023/05/26 02:25:56;;;;;;;24.85;5.35;;;;;;;8.95;100.00;103148.94;5008152;28;20058;-62
2023/05/26 02:28:21;;;;;;;35.05;5.35;;;;;;;8.90;100.00;103141.84;5007060;28;20060;-63
2023/05/26 02:30:47;;;;;;;30.85;5.57;;;;;;;8.85;100.00;103136.56;5007074;28;20711;-61
2023/05/26 02:33:12;;;;;;;31.85;5.38;;;;;;;8.95;100.00;103145.44;5007184;28;21962;-63
2023/05/26 02:35:38;;;;;;;33.90;5.65;;;;;;;9.03;100.00;103142.88;5007625;28;20072;-61
2023/05/26 02:38:03;;;;;;;32.90;5.30;;;;;;;9.03;100.00;103140.25;5007326;28;20026;-61
2023/05/26 02:40:28;;;;;;;32.97;5.10;;;;;;;8.98;100.00;103145.47;5007676;28;20098;-61
2023/05/26 02:42:54;;;;;;;34.88;5.95;;;;;;;9.01;100.00;103147.25;5006961;28;20117;-61
2023/05/26 02:45:19;;;;;;;38.67;5.90;;;;;;;8.98;100.00;103151.59;5006672;28;20116;-61
2023/05/26 02:47:45;;;;;;;29.08;5.93;;;;;;;9.03;100.00;103148.16;5007473;28;20034;-61
2023/05/26 02:50:10;;;;;;;29.77;5.00;;;;;;;8.96;100.00;103141.94;5005832;28;20383;-61
2023/05/26 02:52:35;;;;;;;39.00;5.60;;;;;;;8.91;100.00;103148.91;5008157;28;20126;-61
2023/05/26 02:55:01;;;;;;;38.00;5.65;;;;;;;8.89;100.00;103150.63;5006406;28;20033;-63
2023/05/26 02:57:27;;;;;;;26.20;5.28;;;;;;;8.83;100.00;103148.81;5007315;28;20061;-63
2023/05/26 02:59:52;;;;;;;41.58;5.75;;;;;;;8.91;100.00;103149.75;5006888;28;20369;-62
2023/05/26 03:02:18;;;;;;;30.23;5.20;;;;;;;8.85;100.00;103153.22;5008115;28;20122;-61
2023/05/26 03:04:44;;;;;;;28.55;5.07;;;;;;;8.91;100.00;103157.66;5005898;28;20121;-63
2023/05/26 03:07:09;;;;;;;31.38;5.28;;;;;;;8.93;100.00;103158.56;5008270;28;20137;-59
2023/05/26 03:09:35;;;;;;;27.60;5.25;;;;;;;8.87;100.00;103147.09;5006900;28;20026;-62
2023/05/26 03:12:00;;;;;;;36.45;5.55;;;;;;;8.84;100.00;103156.72;5007330;28;20060;-62
2023/05/26 03:14:26;;;;;;;38.05;5.68;;;;;;;8.78;100.00;103158.38;5006356;28;20026;-61
2023/05/26 03:16:52;;;;;;;26.52;4.47;;;;;;;8.76;100.00;103155.72;5007346;28;20381;-63
2023/05/26 03:19:17;;;;;;;33.40;5.50;;;;;;;8.72;100.00;103154.84;5006348;28;20030;-63
2023/05/26 03:21:43;;;;;;;32.22;5.40;;;;;;;8.72;100.00;103161.84;5006105;28;20486;-64
2023/05/26 03:24:08;;;;;;;30.52;5.22;;;;;;;8.69;100.00;103154.81;5006524;28;20036;-62
2023/05/26 03:26:33;;;;;;;31.70;5.05;;;;;;;8.59;100.00;103156.47;5007641;28;20036;-63
2023/05/26 03:28:59;;;;;;;28.08;5.53;;;;;;;8.66;100.00;103156.50;5005301;28;20478;-61
2023/05/26 03:31:26;;;;;;;23.98;4.68;;;;;;;8.66;100.00;103157.38;5007019;28;20055;-63
2023/05/26 03:33:51;;;;;;;34.47;4.78;;;;;;;8.66;100.00;103162.66;5006154;28;20026;-66
2023/05/26 03:36:17;;;;;;;29.90;5.22;;;;;;;8.71;100.00;103157.44;5006589;28;20052;-61
2023/05/26 03:38:43;;;;;;;44.03;5.90;;;;;;;8.63;100.00;103161.72;5006436;28;20034;-63
2023/05/26 03:41:08;;;;;;;30.73;4.60;;;;;;;8.74;100.00;103165.38;5007608;28;20115;-61
2023/05/26 03:43:34;;;;;;;26.77;4.95;;;;;;;8.70;100.00;103160.94;5004577;28;20036;-61
2023/05/26 03:46:00;;;;;;;33.97;6.40;;;;;;;8.69;100.00;103164.41;5006836;28;20121;-61
2023/05/26 03:48:25;;;;;;;34.53;5.28;;;;;;;8.71;100.00;103165.34;5006256;28;20467;-63
2023/05/26 03:50:51;;;;;;;29.33;6.53;;;;;;;8.71;100.00;103160.97;5005510;28;20029;-60
2023/05/26 03:53:16;;;;;;;42.00;5.82;;;;;;;8.70;100.00;103171.47;5006416;28;20034;-60
2023/05/26 03:55:42;;;;;;;36.47;5.68;;;;;;;8.78;100.00;103172.41;5006075;28;20026;-63
2023/05/26 03:58:07;;;;;;;31.85;5.15;;;;;;;8.83;100.00;103173.38;5007016;28;20038;-61
2023/05/26 04:00:32;;;;;;;35.50;5.47;;;;;;;8.84;100.00;103169.88;5006966;28;20030;-60
2023/05/26 04:02:58;;;;;;;47.50;5.15;;;;;;;8.89;100.00;103171.66;5026155;28;20079;-62
2023/05/26 04:05:24;;;;;;;36.85;5.40;;;;;;;8.89;100.00;103174.28;5005354;28;20042;-61
2023/05/26 04:07:50;;;;;;;42.65;6.32;;;;;;;8.83;100.00;103173.38;5006367;28;20534;-63
2023/05/26 04:10:16;;;;;;;34.80;6.03;;;;;;;8.80;100.00;103172.44;5005904;28;20084;-62
2023/05/26 04:12:41;;;;;;;26.10;4.88;;;;;;;8.89;100.00;103177.81;5007498;28;20488;-62
2023/05/26 04:15:09;;;;;;;37.03;5.50;;;;;;;8.96;100.00;103174.38;5005652;28;20041;-62
2023/05/26 04:17:34;;;;;;;33.00;4.78;;;;;;;8.97;100.00;103169.97;5007044;28;20109;-60
2023/05/26 04:20:00;;;;;;;29.70;5.00;;;;;;;9.06;100.00;103175.34;5005427;28;20117;-60
2023/05/26 04:22:25;;;;;;;24.40;4.97;;;;;;;9.17;100.00;103170.19;5007315;28;20030;-60
2023/05/26 04:24:51;;;;;;;31.58;5.85;;;;;;;9.22;100.00;103175.50;5005847;28;20026;-62
2023/05/26 04:27:16;;;;;;;33.50;5.18;;;;;;;9.16;100.00;103170.19;5007046;28;20034;-61
2023/05/26 04:29:41;;;;;;;26.60;5.13;;;;;;;9.24;100.00;103179.00;5006747;28;20036;-63
2023/05/26 04:32:08;;;;;;;33.63;6.32;;;;;;;9.28;100.00;103182.56;5006663;28;20710;-61
2023/05/26 04:34:34;;;;;;;36.53;5.25;;;;;;;9.40;100.00;103173.91;5005422;28;20030;-61
2023/05/26 04:37:04;;;;;;;29.65;5.35;;;;;;;9.45;100.00;103182.72;5001305;28;20520;-61
2023/05/26 04:39:29;;;;;;;31.15;5.22;;;;;;;9.46;100.00;103179.22;4996362;28;20030;-60
2023/05/26 04:41:55;;;;;;;37.22;4.80;;;;;;;9.58;100.00;103176.66;4993347;28;20026;-61
2023/05/26 04:44:22;;;;;;;30.13;5.28;;;;;;;9.56;100.00;103186.31;4997847;28;20384;-62
2023/05/26 04:46:48;;;;;;;36.95;4.82;;;;;;;9.58;100.00;103184.56;5005980;28;20030;-61
2023/05/26 04:49:16;;;;;;;39.92;5.07;;;;;;;9.57;100.00;103198.59;5007854;28;20029;-62
2023/05/26 04:51:41;;;;;;;35.90;5.85;;;;;;;9.68;100.00;103195.19;5008558;28;20045;-62
2023/05/26 04:54:06;;;;;;;26.15;4.75;;;;;;;9.71;100.00;103198.72;5008320;28;20104;-62
2023/05/26 04:56:32;;;;;;;35.00;6.72;;;;;;;9.77;100.00;103203.16;5008372;28;20033;-62
2023/05/26 04:58:58;;;;;;;38.50;5.30;;;;;;;9.75;100.00;103206.66;5009480;28;20109;-60
2023/05/26 05:01:24;;;;;;;28.67;5.47;;;;;;;9.89;100.00;103199.72;5009410;28;20042;-62
2023/05/26 05:03:49;;;;;;;37.15;5.70;;;;;;;9.75;100.00;103206.66;5007080;28;20407;-61
2023/05/26 05:06:14;;;;;;;25.00;4.57;;;;;;;9.84;100.00;103210.22;5007017;28;20029;-62
2023/05/26 05:08:40;;;;;;;30.92;5.15;;;;;;;9.93;100.00;103217.31;5010533;28;20026;-62
2023/05/26 05:11:05;;;;;;;39.28;5.65;;;;;;;10.07;100.00;103225.31;5009859;28;20053;-61
2023/05/26 05:13:32;;;;;;;27.50;5.03;;;;;;;10.21;100.00;103221.88;5009196;28;20033;-61
2023/05/26 05:15:57;;;;;;;29.73;6.10;;;;;;;10.02;100.00;103219.13;5010393;28;20030;-61
2023/05/26 05:18:23;;;;;;;35.65;5.30;;;;;;;10.18;100.00;103220.09;5008713;28;20026;-62
2023/05/26 05:20:48;;;;;;;29.38;6.10;;;;;;;10.28;100.00;103228.94;5000287;28;20022;-62
2023/05/26 05:23:13;;;;;;;27.75;4.20;;;;;;;10.32;100.00;103230.72;5001392;28;20071;-62
2023/05/26 05:25:40;;;;;;;22.65;4.95;;;;;;;10.40;100.00;103224.63;4999755;28;20051;-61
2023/05/26 05:28:05;;;;;;;33.00;6.00;;;;;;;10.35;100.00;103230.75;5003049;28;20022;-60
2023/05/26 05:30:31;;;;;;;41.53;5.78;;;;;;;10.50;100.00;103229.09;5006663;28;20033;-62
2023/05/26 05:32:56;;;;;;;31.67;5.97;;;;;;;10.57;100.00;103225.59;4995076;28;20093;-61
2023/05/26 05:35:21;;;;;;;22.58;4.70;;;;;;;10.55;100.00;103227.38;5000381;28;20476;-61
2023/05/26 05:37:47;;;;;;;30.85;5.30;;;;;;;10.70;100.00;103230.94;5007310;28;20104;-62
2023/05/26 05:40:12;;;;;;;35.38;6.07;;;;;;;10.71;100.00;103240.59;5001219;28;20141;-62
2023/05/26 05:42:37;;;;;;;25.45;5.30;;;;;;;10.74;100.00;103237.97;4996724;28;20034;-60
2023/05/26 05:45:05;;;;;;;35.25;6.13;;;;;;;10.76;100.00;103233.59;4979213;28;20117;-61
2023/05/26 05:47:30;;;;;;;34.28;5.10;;;;;;;10.82;100.00;103236.28;4990574;28;20392;-60
2023/05/26 05:49:55;;;;;;;30.35;6.22;;;;;;;10.85;100.00;103246.84;4992039;28;20026;-61
2023/05/26 05:52:20;;;;;;;27.48;4.55;;;;;;;10.95;100.00;103238.94;5006298;28;20033;-60
2023/05/26 05:54:46;;;;;;;33.08;5.47;;;;;;;11.03;100.00;103238.97;5007331;28;20029;-60
2023/05/26 05:57:11;;;;;;;34.45;6.00;;;;;;;11.08;100.00;103248.63;5008398;28;20026;-61
2023/05/26 05:59:36;;;;;;;25.15;4.72;;;;;;;11.25;100.00;103245.16;5010658;28;20030;-61
2023/05/26 06:02:02;;;;;;;30.90;5.60;;;;;;;11.19;100.00;103243.41;5007082;28;20034;-59
2023/05/26 06:04:27;;;;;;;24.55;5.30;;;;;;;11.22;100.00;103247.78;5006135;28;20046;-61
2023/05/26 06:06:52;;;;;;;34.33;5.45;;;;;;;11.32;100.00;103246.06;5005610;28;20069;-62
2023/05/26 06:09:18;;;;;;;30.67;5.22;;;;;;;11.36;100.00;103245.19;5006925;28;20386;-64
2023/05/26 06:11:43;;;;;;;30.27;5.32;;;;;;;11.45;100.00;103249.59;5007735;28;20480;-61
2023/05/26 06:14:09;;;;;;;34.63;5.07;;;;;;;11.42;100.00;103246.94;5006207;28;20404;-61
2023/05/26 06:16:34;;;;;;;25.88;4.93;;;;;;;11.48;100.00;103247.84;5006798;28;20102;-64
2023/05/26 06:18:59;;;;;;;35.28;4.90;;;;;;;11.57;100.00;103246.97;5006435;28;20596;-61
2023/05/26 06:21:25;;;;;;;31.27;4.97;;;;;;;11.74;100.00;103251.41;5006356;28;20064;-60
2023/05/26 06:23:52;;;;;;;31.35;4.28;;;;;;;11.41;100.00;103255.75;5004393;28;20065;-61
2023/05/26 06:26:17;;;;;;;35.40;4.80;;;;;;;11.41;100.00;103255.75;5007158;28;20033;-60
2023/05/26 06:28:43;;;;;;;41.20;5.20;;;;;;;11.24;100.00;103256.59;5006609;28;20034;-62
2023/05/26 06:31:08;;;;;;;23.33;5.07;;;;;;;11.46;100.00;103259.28;5006256;28;20040;-61
2023/05/26 06:33:34;;;;;;;25.95;4.65;;;;;;;11.86;100.00;103269.84;5006338;28;20029;-61
2023/05/26 06:35:59;;;;;;;40.70;6.25;;;;;;;11.72;100.00;103259.31;5006316;28;20178;-61
2023/05/26 06:38:24;;;;;;;32.30;5.47;;;;;;;11.85;100.00;103262.81;5005800;28;20026;-62
2023/05/26 06:40:50;;;;;;;33.50;5.10;;;;;;;11.46;100.00;103261.91;5005742;28;20490;-62
2023/05/26 06:43:15;;;;;;;24.48;4.50;;;;;;;11.78;100.00;103263.72;5006568;28;20060;-60
2023/05/26 06:45:40;;;;;;;32.80;5.30;;;;;;;11.74;100.00;103260.19;5005302;28;20025;-60
2023/05/26 06:48:06;;;;;;;28.50;5.28;;;;;;;11.74;100.00;103264.59;5005180;28;20026;-60
2023/05/26 06:50:31;;;;;;;33.35;5.80;;;;;;;11.81;100.00;103260.19;5005587;28;20022;-61
2023/05/26 06:52:56;;;;;;;27.75;4.75;;;;;;;12.08;100.00;103263.72;5004993;28;20141;-61
2023/05/26 06:55:21;;;;;;;27.98;4.88;;;;;;;11.88;100.00;103262.81;5004533;28;20022;-61
2023/05/26 06:57:47;;;;;;;27.65;5.07;;;;;;;11.96;100.00;103265.47;5006232;28;20306;-61
2023/05/26 07:00:13;;;;;;;23.55;4.43;;;;;;;11.95;100.00;103265.47;5005440;28;20026;-64
2023/05/26 07:02:40;;;;;;;22.42;5.32;;;;;;;12.12;100.00;103273.41;5007052;28;20029;-61
2023/05/26 07:05:06;;;;;;;25.15;4.60;;;;;;;11.78;100.00;103276.91;5003277;28;20034;-62
2023/05/26 07:07:31;;;;;;;28.10;5.32;;;;;;;11.81;100.00;103276.91;5005019;28;20127;-60
2023/05/26 07:09:57;;;;;;;31.00;5.00;;;;;;;12.15;100.00;103276.03;5005610;28;20080;-61
2023/05/26 07:12:22;;;;;;;27.15;5.20;;;;;;;12.11;100.00;103280.47;5003377;28;20030;-61
2023/05/26 07:14:47;;;;;;;30.85;5.15;;;;;;;12.37;100.00;103283.91;4993946;28;20057;-58
2023/05/26 07:17:13;;;;;;;29.92;4.97;;;;;;;12.51;100.00;103283.91;5007205;28;20034;-61
2023/05/26 07:19:38;;;;;;;26.90;4.90;;;;;;;12.53;100.00;103279.50;5005981;28;20025;-62
2023/05/26 07:22:04;;;;;;;21.17;4.65;;;;;;;12.49;100.00;103285.66;5005877;28;20097;-61
2023/05/26 07:24:30;;;;;;;20.50;4.82;;;;;;;12.66;100.00;103279.44;5006739;28;20049;-69
2023/05/26 07:26:55;;;;;;;25.45;4.47;;;;;;;12.84;100.00;103271.44;5005049;28;20030;-62
2023/05/26 07:29:20;;;;;;;25.50;4.80;;;;;;;13.10;99.96;103270.41;5004387;28;20253;-60
2023/05/26 07:31:45;;;;;;;28.33;4.50;;;;;;;12.80;100.00;103272.34;5005741;28;20030;-64
2023/05/26 07:34:11;;;;;;;25.08;4.78;;;;;;;13.10;100.00;103275.69;5004437;28;20060;-63
2023/05/26 07:36:36;;;;;;;21.15;4.80;;;;;;;12.91;100.00;103266.13;5005112;28;20038;-62
2023/05/26 07:39:02;;;;;;;23.17;4.90;;;;;;;12.62;100.00;103270.66;5005242;28;20448;-60
2023/05/26 07:41:27;;;;;;;16.42;3.78;;;;;;;12.60;100.00;103270.66;4998264;28;20553;-61
2023/05/26 07:43:52;;;;;;;25.10;4.55;;;;;;;12.77;99.91;103259.13;5000533;28;20033;-62
2023/05/26 07:46:18;;;;;;;27.95;4.90;;;;;;;13.10;99.55;103261.59;4999738;28;20033;-63
2023/05/26 07:48:43;;;;;;;32.58;5.47;;;;;;;12.82;100.00;103256.47;5000171;28;20057;-61
2023/05/26 07:51:08;;;;;;;26.50;4.43;;;;;;;12.93;100.00;103256.38;5003755;28;20214;-59
2023/05/26 07:53:35;;;;;;;27.92;4.30;;;;;;;13.00;100.00;103260.75;5005725;28;20028;-60
2023/05/26 07:56:00;;;;;;;25.67;4.75;;;;;;;13.04;99.76;103259.00;5004231;28;20369;-61
2023/05/26 07:58:26;;;;;;;26.20;4.28;;;;;;;13.09;99.55;103255.44;5005319;28;20033;-62
2023/05/26 08:00:51;;;;;;;20.45;4.35;;;;;;;13.04;99.00;103257.22;5004136;28;20018;-63
2023/05/26 08:03:16;;;;;;;23.67;4.53;;;;;;;13.14;98.82;103258.06;5003859;28;20035;-62
2023/05/26 08:05:43;;;;;;;24.75;4.75;;;;;;;13.10;98.94;103257.16;4995253;28;20515;-61
2023/05/26 08:08:08;;;;;;;20.35;4.72;;;;;;;13.18;100.00;103261.56;5004340;28;20033;-59
2023/05/26 08:10:33;;;;;;;22.35;4.22;;;;;;;13.09;99.85;103259.81;5003916;28;20360;-60
2023/05/26 08:12:59;;;;;;;25.60;5.18;;;;;;;13.37;100.00;103249.94;5004723;28;20018;-61
2023/05/26 08:15:24;;;;;;;30.77;5.38;;;;;;;13.62;99.71;103255.09;5003468;28;20475;-61
2023/05/26 08:17:50;;;;;;;21.88;4.85;;;;;;;13.86;96.84;103257.56;5002845;28;20030;-61
2023/05/26 08:20:15;;;;;;;27.23;4.70;;;;;;;13.55;98.91;103257.81;5001524;28;20018;-61
2023/05/26 08:22:41;;;;;;;23.42;4.60;;;;;;;13.48;99.20;103241.03;5003130;28;20109;-60
2023/05/26 08:25:06;;;;;;;24.27;5.18;;;;;;;13.63;98.46;103250.66;5003020;28;20056;-62
2023/05/26 08:27:31;;;;;;;23.05;4.35;;;;;;;13.61;94.51;103258.63;5007160;28;20029;-61
2023/05/26 08:29:57;;;;;;;20.73;4.03;;;;;;;13.66;95.64;103253.28;5006114;28;20520;-62
2023/05/26 08:32:23;;;;;;;32.53;5.93;;;;;;;13.52;95.13;103258.72;5005534;28;20034;-61
2023/05/26 08:34:48;;;;;;;23.52;4.30;;;;;;;13.42;95.51;103257.00;5008308;28;20113;-61
2023/05/26 08:37:15;;;;;;;30.58;4.53;;;;;;;13.68;95.10;103255.94;5008310;28;20454;-62
2023/05/26 08:39:41;;;;;;;26.00;5.22;;;;;;;13.71;96.52;103261.22;5008512;28;20122;-61
2023/05/26 08:42:07;;;;;;;23.17;4.40;;;;;;;13.62;94.44;103255.09;5007566;28;20069;-60
2023/05/26 08:44:36;;;;;;;26.02;4.57;;;;;;;13.56;95.32;103256.91;4991307;28;20038;-61
2023/05/26 08:47:03;;;;;;;17.33;4.20;;;;;;;13.61;95.61;103253.31;5006577;28;20033;-60
2023/05/26 08:49:36;;;;;;;37.53;4.20;;;;;;;13.76;95.21;103257.63;5007199;28;20038;-61
2023/05/26 08:52:09;;;;;;;30.52;5.13;;;;;;;14.19;94.80;103260.78;5008468;28;20108;-62
2023/05/26 08:54:34;;;;;;;24.60;4.20;;;;;;;14.05;89.85;103262.69;5007338;28;20121;-63
2023/05/26 08:57:02;;;;;;;29.58;4.35;;;;;;;13.95;90.60;103262.78;5001990;28;20109;-60
2023/05/26 08:59:29;;;;;;;43.65;4.80;;;;;;;13.86;91.81;103262.84;5003447;28;20087;-60
2023/05/26 09:01:56;;;;;;;32.83;5.60;;;;;;;13.83;92.80;103263.75;5002034;28;20033;-61
2023/05/26 09:04:21;;;;;;;25.30;4.70;;;;;;;14.04;93.41;103253.84;5007423;28;20054;-61
2023/05/26 09:06:46;;;;;;;26.77;4.93;;;;;;;14.14;92.61;103247.56;5008765;28;20409;-61
2023/05/26 09:09:13;;;;;;;19.90;4.47;;;;;;;14.38;90.41;103255.25;5007220;28;20022;-61
2023/05/26 09:11:46;;;;;;;22.70;4.55;;;;;;;14.44;92.41;103254.31;5008784;28;20112;-62
2023/05/26 09:14:16;;;;;;;21.92;4.47;;;;;;;14.43;89.73;103255.22;5007106;28;20026;-61
2023/05/26 09:16:41;;;;;;;20.80;3.83;;;;;;;14.42;90.13;103256.13;5005920;28;20507;-60
2023/05/26 09:19:12;;;;;;;17.52;4.03;;;;;;;14.27;90.80;103258.91;5007484;28;20034;-61
2023/05/26 09:21:38;;;;;;;20.35;4.57;;;;;;;14.61;89.71;103257.66;5007555;28;20168;-62
2023/05/26 09:24:03;;;;;;;20.20;3.80;;;;;;;14.95;87.43;103266.09;5006204;28;20113;-61
2023/05/26 09:26:29;;;;;;;20.55;5.00;;;;;;;14.88;88.33;103258.22;5006851;28;20380;-59
2023/05/26 09:28:55;;;;;;;23.70;4.70;;;;;;;14.96;87.57;103268.72;5003810;28;20041;-64
2023/05/26 09:31:20;;;;;;;22.35;4.95;;;;;;;14.80;90.16;103256.56;5005302;28;20079;-61
2023/05/26 09:33:46;;;;;;;24.52;5.13;;;;;;;14.89;89.15;103257.31;4999413;28;20040;-63
2023/05/26 09:36:11;;;;;;;24.65;4.75;;;;;;;15.02;89.10;103258.03;5003621;28;20029;-59
2023/05/26 09:38:37;;;;;;;21.67;4.30;;;;;;;14.78;90.31;103246.00;4996763;28;20661;-61
2023/05/26 09:41:02;;;;;;;24.98;4.90;;;;;;;14.86;91.62;103252.06;4998534;28;20030;-60
2023/05/26 09:43:27;;;;;;;24.25;4.97;;;;;;;14.68;90.97;103246.94;5007678;28;20469;-61
2023/05/26 09:45:53;;;;;;;24.17;4.65;;;;;;;14.64;92.46;103252.31;5005133;28;20101;-61
2023/05/26 09:48:18;;;;;;;24.23;4.93;;;;;;;14.86;91.33;103252.06;5004460;28;20060;-60
2023/05/26 09:50:44;;;;;;;25.55;4.75;;;;;;;15.22;88.92;103253.31;5006146;28;20087;-61
2023/05/26 09:53:10;;;;;;;18.45;4.50;;;;;;;15.43;87.27;103261.84;4987247;28;20037;-60
2023/05/26 09:55:38;;;;;;;22.98;4.78;;;;;;;15.50;86.25;103258.22;4986299;28;20061;-61
2023/05/26 09:58:05;;;;;;;28.70;5.33;;;;;;;15.36;86.65;103246.03;4997161;28;20449;-61
2023/05/26 10:00:36;;;;;;;21.00;4.53;;;;;;;15.53;87.77;103243.09;5007641;28;20030;-60
2023/05/26 10:03:03;;;;;;;21.80;4.65;;;;;;;15.47;88.42;103247.66;5004583;28;20396;-62
2023/05/26 10:05:31;;;;;;;26.65;5.28;;;;;;;15.35;90.86;103238.94;5005991;28;20041;-62
2023/05/26 10:07:57;;;;;;;27.17;4.53;;;;;;;15.52;90.52;103246.66;5005406;28;20072;-61
2023/05/26 10:10:22;;;;;;;30.45;5.13;;;;;;;15.83;88.98;103249.72;5005178;28;20376;-62
2023/05/26 10:12:48;;;;;;;24.63;4.55;;;;;;;15.88;87.69;103247.81;5006990;28;20109;-61
2023/05/26 10:15:14;;;;;;;22.80;4.82;;;;;;;15.60;89.14;103243.88;5005831;28;20038;-64
2023/05/26 10:17:39;;;;;;;23.38;5.40;;;;;;;15.78;88.45;103249.78;5005935;28;20480;-60
2023/05/26 10:20:05;;;;;;;25.02;4.65;;;;;;;15.83;88.57;103242.59;5005979;28;20052;-64
2023/05/26 10:22:38;;;;;;;31.58;5.55;;;;;;;16.32;89.08;103242.63;5005105;28;20069;-60
2023/05/26 10:25:31;;;;;;;23.95;5.28;;;;;;;16.41;86.06;103245.06;5006625;28;20022;-64
2023/05/26 10:28:08;;;;;;;27.42;5.47;;;;;;;15.95;87.14;103243.28;4998458;28;20523;-62
2023/05/26 10:30:34;;;;;;;20.90;4.85;;;;;;;16.10;85.98;103232.38;5002581;28;20027;-61
2023/05/26 10:33:09;;;;;;;20.42;4.82;;;;;;;16.02;86.26;103239.66;4997096;28;20052;-62
2023/05/26 10:35:35;;;;;;;21.58;4.95;;;;;;;16.58;86.40;103233.22;5005040;28;20057;-64
2023/05/26 10:38:03;;;;;;;23.92;5.45;;;;;;;16.63;85.61;103226.00;5001706;28;20420;-62
2023/05/26 10:40:41;;;;;;;29.92;5.78;;;;;;;16.51;89.41;103239.56;4993485;28;20026;-61
2023/05/26 10:43:25;;;;;;;25.38;4.95;;;;;;;16.57;82.94;103239.44;5006425;28;20120;-65
2023/05/26 10:45:53;;;;;;;25.60;5.03;;;;;;;16.28;87.34;103240.91;4999933;28;20033;-61
2023/05/26 10:48:19;;;;;;;28.35;5.65;;;;;;;16.57;86.91;103230.56;5001711;28;20473;-62
2023/05/26 10:50:59;;;;;;;22.25;4.85;;;;;;;16.88;83.53;103232.56;4997376;28;20029;-61
2023/05/26 10:53:29;;;;;;;22.98;5.05;;;;;;;16.92;83.52;103235.13;5004974;28;20040;-63
2023/05/26 10:56:08;;;;;;;26.65;5.20;;;;;;;16.83;83.10;103229.16;5007422;28;20067;-62
2023/05/26 10:58:47;;;;;;;23.55;5.13;;;;;;;16.72;83.40;103237.34;5006408;28;20036;-61
2023/05/26 11:01:26;;;;;;;24.80;4.47;;;;;;;16.52;82.92;103239.53;5006572;28;20419;-63
2023/05/26 11:04:08;;;;;;;24.15;4.88;;;;;;;16.65;84.04;103226.84;5004035;28;20026;-61
2023/05/26 11:06:42;;;;;;;25.90;5.45;;;;;;;17.09;82.77;103222.34;5007749;28;20072;-62
2023/05/26 11:09:10;;;;;;;26.05;5.13;;;;;;;16.93;82.06;103233.34;5006113;28;20034;-62
2023/05/26 11:11:39;;;;;;;20.63;4.60;;;;;;;16.89;83.17;103221.88;5006367;28;20033;-65